Noonamah, Australia
Current Conditions -  °F | °C
As of 12:30 PM on Tuesday 27 Jan 2015 (Local Time) from YPDN Reporting Station
Moderate Rain Moderate Rain  
Wind Chill: 73°   Ceiling: 4800
Heat Index: 73°   Visibility: 0.62mi
Dew Point: 73°   Wind: 20mph
Humidity: 100%   Direction: 210°SSW
Pressure: 29.74"   Gusts: NA
Location:  12.66°S, 131.08°E
Report Text: YPDN 270330Z 21017KT 1000 RA SCT008 BKN048 23/23 Q1007 RESHRA
Loading
Personal Weather Stations






























Interactive Weather Map New forecast layout! Learn more

10-Day Weather Forecast

Advertisements
Track Severe Weather on mobile